createdAt,value
2022-10-06T00:00:50.495Z,59.16
2022-10-06T00:03:17.579Z,58.78
2022-10-06T00:05:44.512Z,58.63
2022-10-06T00:08:11.702Z,58.61
2022-10-06T00:10:40.431Z,58.82
2022-10-06T00:13:07.357Z,58.81
2022-10-06T00:15:34.291Z,59.25
2022-10-06T00:18:02.068Z,59.06
2022-10-06T00:20:29.124Z,58.73
2022-10-06T00:22:57.141Z,58.60
2022-10-06T00:25:25.375Z,59.05
2022-10-06T00:27:53.163Z,58.75
2022-10-06T00:30:22.265Z,58.77
2022-10-06T00:33:00.904Z,58.38
2022-10-06T00:35:33.744Z,59.13
2022-10-06T00:38:01.082Z,59.14
2022-10-06T00:40:29.061Z,59.31
2022-10-06T00:42:58.415Z,59.60
2022-10-06T00:45:33.543Z,59.57
2022-10-06T00:48:05.342Z,59.49
2022-10-06T00:50:32.226Z,59.13
2022-10-06T00:52:59.069Z,58.62
2022-10-06T00:55:26.034Z,59.26
2022-10-06T00:57:53.009Z,59.99
2022-10-06T01:00:20.635Z,60.99
2022-10-06T01:02:54.793Z,61.45
2022-10-06T01:05:28.748Z,60.89
2022-10-06T01:07:55.843Z,60.20
2022-10-06T01:10:22.546Z,60.11
2022-10-06T01:12:49.277Z,60.10
2022-10-06T01:15:16.796Z,59.90
2022-10-06T01:17:55.269Z,59.59
2022-10-06T01:20:23.154Z,59.39
2022-10-06T01:22:55.466Z,59.58
2022-10-06T01:25:23.048Z,59.36
2022-10-06T01:27:53.873Z,59.41
2022-10-06T01:30:30.384Z,58.72
2022-10-06T01:32:57.006Z,59.06
2022-10-06T01:35:23.809Z,59.49
2022-10-06T01:37:50.469Z,59.77
2022-10-06T01:40:17.180Z,59.84
2022-10-06T01:42:43.815Z,59.76
2022-10-06T01:45:10.784Z,59.52
2022-10-06T01:47:37.357Z,59.41
2022-10-06T01:50:05.538Z,59.24
2022-10-06T01:52:32.168Z,59.24
2022-10-06T01:54:58.774Z,58.82
2022-10-06T01:57:25.374Z,59.15
2022-10-06T01:59:54.779Z,58.97
2022-10-06T02:02:21.880Z,58.65
2022-10-06T02:04:48.606Z,59.28
2022-10-06T02:07:15.413Z,59.57
2022-10-06T02:09:42.031Z,59.65
2022-10-06T02:12:08.663Z,59.84
2022-10-06T02:14:35.238Z,59.32
2022-10-06T02:17:01.833Z,58.96
2022-10-06T02:19:28.424Z,59.65
2022-10-06T02:21:55.948Z,59.63
2022-10-06T02:24:22.497Z,60.07
2022-10-06T02:26:49.145Z,59.62
2022-10-06T02:29:15.723Z,59.60
2022-10-06T02:31:42.437Z,59.90
2022-10-06T02:34:10.130Z,59.46
2022-10-06T02:36:36.787Z,60.04
2022-10-06T02:39:04.284Z,60.21
2022-10-06T02:41:31.810Z,59.80
2022-10-06T02:43:58.714Z,59.12
2022-10-06T02:46:25.689Z,59.25
2022-10-06T02:48:53.849Z,58.64
2022-10-06T02:51:22.051Z,59.77
2022-10-06T02:53:50.155Z,61.07
2022-10-06T02:56:25.297Z,60.91
2022-10-06T02:58:53.369Z,60.64
2022-10-06T03:01:23.975Z,60.70
2022-10-06T03:03:50.698Z,61.18
2022-10-06T03:06:23.408Z,60.67
2022-10-06T03:08:58.996Z,60.85
2022-10-06T03:11:34.685Z,61.20
2022-10-06T03:14:01.565Z,60.71
2022-10-06T03:16:33.592Z,60.28
2022-10-06T03:19:01.629Z,60.81
2022-10-06T03:21:30.839Z,61.29
2022-10-06T03:23:58.853Z,61.01
2022-10-06T03:26:31.536Z,60.43
2022-10-06T03:28:58.531Z,60.59
2022-10-06T03:31:25.626Z,60.24
2022-10-06T03:33:55.181Z,60.30
2022-10-06T03:36:23.624Z,60.27
2022-10-06T03:38:50.875Z,60.34
2022-10-06T03:41:20.261Z,60.15
2022-10-06T03:43:49.018Z,60.72
2022-10-06T03:46:18.744Z,60.54
2022-10-06T03:48:46.381Z,60.75
2022-10-06T03:51:18.786Z,60.83
2022-10-06T03:53:47.246Z,60.83
2022-10-06T03:56:22.663Z,60.71
2022-10-06T03:58:57.823Z,60.41
2022-10-06T04:01:30.614Z,60.08
2022-10-06T04:03:59.494Z,60.51
2022-10-06T04:06:27.737Z,60.35
2022-10-06T04:08:55.285Z,61.00
2022-10-06T04:11:30.718Z,61.56
2022-10-06T04:14:02.822Z,61.74
2022-10-06T04:16:32.110Z,61.52
2022-10-06T04:19:00.975Z,61.14
2022-10-06T04:21:28.988Z,62.04
2022-10-06T04:23:59.777Z,61.83
2022-10-06T04:26:30.748Z,61.30
2022-10-06T04:28:57.586Z,61.33
2022-10-06T04:31:37.116Z,62.07
2022-10-06T04:34:05.370Z,62.50
2022-10-06T04:36:41.016Z,62.39
2022-10-06T04:39:10.694Z,61.77
2022-10-06T04:41:39.720Z,61.23
2022-10-06T04:44:07.397Z,61.06
2022-10-06T04:46:43.843Z,60.91
2022-10-06T04:49:17.944Z,60.83
2022-10-06T04:51:46.259Z,60.50
2022-10-06T04:54:12.905Z,60.51
2022-10-06T04:56:39.507Z,61.78
2022-10-06T04:59:06.113Z,61.14
2022-10-06T05:01:35.593Z,60.27
2022-10-06T05:04:04.252Z,60.44
2022-10-06T05:06:39.009Z,60.59
2022-10-06T05:09:11.388Z,61.32
2022-10-06T05:11:38.260Z,61.00
2022-10-06T05:14:05.544Z,60.78
2022-10-06T05:16:32.589Z,61.10
2022-10-06T05:18:59.599Z,61.36
2022-10-06T05:21:29.364Z,60.88
2022-10-06T05:23:56.213Z,61.59
2022-10-06T05:26:24.597Z,61.56
2022-10-06T05:28:51.444Z,61.05
2022-10-06T05:31:32.829Z,62.17
2022-10-06T05:33:59.986Z,63.08
2022-10-06T05:36:32.898Z,62.26
2022-10-06T05:39:00.453Z,62.47
2022-10-06T05:41:32.865Z,62.15
2022-10-06T05:44:00.078Z,61.69
2022-10-06T05:46:29.016Z,61.74
2022-10-06T05:49:14.824Z,62.78
2022-10-06T05:51:42.021Z,62.09
2022-10-06T05:54:08.742Z,64.00
2022-10-06T05:56:37.657Z,64.34
2022-10-06T05:59:05.192Z,64.14
2022-10-06T06:01:33.020Z,63.62
2022-10-06T06:04:03.744Z,62.94
2022-10-06T06:06:38.459Z,62.51
2022-10-06T06:09:20.369Z,63.85
2022-10-06T06:11:52.674Z,62.03
2022-10-06T06:14:43.997Z,62.51
2022-10-06T06:17:11.568Z,61.96
2022-10-06T06:19:38.217Z,61.27
2022-10-06T06:22:04.847Z,60.81
2022-10-06T06:24:31.427Z,60.51
2022-10-06T06:26:57.986Z,60.10
2022-10-06T06:29:24.582Z,59.56
2022-10-06T06:31:51.401Z,60.34
2022-10-06T06:34:18.065Z,60.78
2022-10-06T06:36:47.140Z,60.07
2022-10-06T06:39:15.673Z,60.94
2022-10-06T06:41:48.957Z,59.65
2022-10-06T06:44:15.519Z,59.74
2022-10-06T06:46:44.889Z,60.33
2022-10-06T06:49:15.564Z,59.22
2022-10-06T06:51:44.412Z,58.33
2022-10-06T06:54:12.925Z,58.86
2022-10-06T06:56:39.850Z,59.60
2022-10-06T06:59:12.006Z,59.02
2022-10-06T07:01:47.175Z,59.83
2022-10-06T07:04:15.973Z,59.83
2022-10-06T07:06:47.612Z,59.97
2022-10-06T07:09:14.284Z,58.81
2022-10-06T07:11:41.129Z,59.01
2022-10-06T07:14:12.612Z,57.77
2022-10-06T07:16:58.270Z,56.68
2022-10-06T07:19:43.396Z,57.06
2022-10-06T07:22:28.387Z,57.93
2022-10-06T07:25:12.955Z,57.56
2022-10-06T07:27:42.267Z,58.98
2022-10-06T07:30:30.154Z,57.57
2022-10-06T07:32:56.739Z,56.80
2022-10-06T07:35:24.959Z,57.00
2022-10-06T07:37:55.094Z,56.46
2022-10-06T07:40:21.673Z,55.91
2022-10-06T07:42:48.424Z,55.44
2022-10-06T07:45:33.789Z,56.98
2022-10-06T07:48:02.484Z,57.72
2022-10-06T07:50:29.376Z,56.92
2022-10-06T07:52:56.364Z,57.09
2022-10-06T07:55:23.046Z,55.54
2022-10-06T07:57:51.257Z,54.93
2022-10-06T08:00:20.921Z,54.61
2022-10-06T08:02:47.569Z,53.41
2022-10-06T08:05:14.561Z,53.53
2022-10-06T08:07:41.416Z,55.15
2022-10-06T08:10:08.351Z,57.36
2022-10-06T08:12:37.354Z,58.17
2022-10-06T08:15:07.598Z,58.10
2022-10-06T08:17:36.342Z,56.21
2022-10-06T08:20:04.516Z,54.78
2022-10-06T08:22:31.192Z,54.11
2022-10-06T08:25:05.745Z,53.70
2022-10-06T08:27:37.069Z,54.55
2022-10-06T08:30:07.856Z,54.89
2022-10-06T08:32:34.520Z,54.02
2022-10-06T08:35:01.452Z,54.74
2022-10-06T08:37:28.103Z,53.42
2022-10-06T08:39:55.437Z,53.31
2022-10-06T08:42:33.933Z,53.55
2022-10-06T08:45:04.951Z,52.24
2022-10-06T08:47:35.990Z,52.28
2022-10-06T08:50:05.664Z,53.24
2022-10-06T08:52:46.276Z,51.72
2022-10-06T08:55:24.785Z,52.04
2022-10-06T09:00:42.550Z,52.58
2022-10-06T09:03:24.340Z,52.06
2022-10-06T09:05:54.986Z,51.40
2022-10-06T09:08:50.740Z,50.78
2022-10-06T09:11:55.282Z,51.17
2022-10-06T09:14:29.773Z,50.51
2022-10-06T09:17:01.303Z,50.54
2022-10-06T09:19:47.476Z,48.85
2022-10-06T09:22:20.660Z,49.19
2022-10-06T09:24:51.253Z,49.55
2022-10-06T09:27:41.322Z,49.46
2022-10-06T09:30:13.270Z,49.12
2022-10-06T09:32:46.909Z,48.70
2022-10-06T09:35:23.261Z,48.57
2022-10-06T09:38:08.810Z,47.32
2022-10-06T09:40:54.015Z,47.36
2022-10-06T09:43:31.118Z,46.90
2022-10-06T09:46:21.458Z,46.38
2022-10-06T09:48:48.185Z,46.80
2022-10-06T09:51:18.275Z,47.21
2022-10-06T09:54:12.753Z,46.11
2022-10-06T09:56:45.544Z,45.61
2022-10-06T09:59:37.625Z,46.88
2022-10-06T10:02:28.514Z,46.62
2022-10-06T10:05:07.391Z,45.97
2022-10-06T10:07:35.988Z,45.04
2022-10-06T10:10:23.183Z,44.72
2022-10-06T10:13:00.487Z,45.10
2022-10-06T10:15:40.548Z,45.23
2022-10-06T10:18:17.162Z,43.42
2022-10-06T10:20:59.014Z,43.49
2022-10-06T10:23:31.739Z,42.31
2022-10-06T10:26:08.173Z,42.32
2022-10-06T10:28:59.779Z,41.45
2022-10-06T10:31:48.419Z,40.01
2022-10-06T10:34:47.300Z,40.23
2022-10-06T10:37:25.693Z,42.35
2022-10-06T10:40:00.522Z,41.36
2022-10-06T10:42:38.544Z,40.68
2022-10-06T10:45:15.111Z,41.89
2022-10-06T10:47:46.869Z,40.79
2022-10-06T10:50:28.338Z,39.65
2022-10-06T10:53:02.278Z,39.38
2022-10-06T10:55:34.454Z,39.29
2022-10-06T10:58:29.037Z,39.81
2022-10-06T11:01:02.527Z,38.10
2022-10-06T11:03:29.129Z,37.34
2022-10-06T11:06:22.771Z,37.73
2022-10-06T11:08:52.042Z,37.21
2022-10-06T11:11:55.432Z,36.89
2022-10-06T11:14:59.879Z,36.83
2022-10-06T11:17:44.934Z,35.05
2022-10-06T11:20:36.467Z,32.77
2022-10-06T11:23:18.723Z,32.92
2022-10-06T11:26:08.029Z,33.91
2022-10-06T11:28:59.734Z,35.67
2022-10-06T11:31:32.189Z,36.32
2022-10-06T11:34:02.031Z,35.36
2022-10-06T11:36:37.732Z,35.84
2022-10-06T11:39:13.343Z,34.85
2022-10-06T11:41:49.432Z,34.08
2022-10-06T11:44:34.448Z,31.88
2022-10-06T11:47:36.330Z,34.52
2022-10-06T11:50:36.767Z,31.12
2022-10-06T11:53:26.841Z,32.63
2022-10-06T11:56:19.434Z,32.74
2022-10-06T11:58:54.634Z,30.79
2022-10-06T12:01:50.435Z,29.41
2022-10-06T12:04:24.715Z,28.90
2022-10-06T12:06:52.150Z,29.50
2022-10-06T12:09:33.376Z,30.15
2022-10-06T12:12:07.099Z,29.17
2022-10-06T12:17:58.062Z,30.52
2022-10-06T12:21:06.456Z,30.75
2022-10-06T12:23:42.903Z,28.34
2022-10-06T12:26:25.677Z,28.52
2022-10-06T12:28:59.399Z,29.35
2022-10-06T12:31:47.609Z,28.97
2022-10-06T12:34:51.857Z,29.24
2022-10-06T12:37:33.509Z,29.29
2022-10-06T12:40:38.179Z,28.76
2022-10-06T12:43:20.895Z,28.80
2022-10-06T12:46:02.143Z,28.92
2022-10-06T12:49:04.628Z,29.43
2022-10-06T12:51:36.221Z,29.79
2022-10-06T12:54:25.369Z,29.92
2022-10-06T12:57:03.624Z,29.27
2022-10-06T12:59:35.254Z,29.54
2022-10-06T13:02:08.031Z,28.96
2022-10-06T13:04:53.957Z,28.87
2022-10-06T13:07:20.542Z,28.66
2022-10-06T13:09:50.076Z,29.33
2022-10-06T13:12:32.330Z,29.48
2022-10-06T13:15:41.555Z,31.03
2022-10-06T13:18:08.049Z,30.81
2022-10-06T13:20:49.232Z,32.37
2022-10-06T13:23:26.658Z,31.17
2022-10-06T13:26:02.474Z,29.27
2022-10-06T13:28:44.077Z,29.68
2022-10-06T13:31:26.760Z,28.90
2022-10-06T13:34:13.869Z,29.44
2022-10-06T13:36:47.563Z,30.32
2022-10-06T13:39:16.668Z,31.70
2022-10-06T13:41:47.965Z,29.84
2022-10-06T13:44:14.494Z,30.64
2022-10-06T13:46:45.965Z,30.74
2022-10-06T13:49:26.307Z,30.01
2022-10-06T13:51:54.653Z,29.47
2022-10-06T13:54:33.317Z,29.59
2022-10-06T13:56:59.953Z,29.35
2022-10-06T13:59:32.892Z,31.42
2022-10-06T14:02:17.867Z,31.38
2022-10-06T14:04:45.245Z,29.46
2022-10-06T14:07:14.200Z,29.91
2022-10-06T14:09:42.973Z,30.67
2022-10-06T14:12:18.460Z,32.55
2022-10-06T14:14:51.058Z,33.91
2022-10-06T14:17:24.439Z,33.87
2022-10-06T14:19:54.986Z,32.97
2022-10-06T14:23:07.513Z,34.05
2022-10-06T14:25:43.111Z,34.06
2022-10-06T14:28:13.125Z,33.59
2022-10-06T14:30:51.122Z,35.60
2022-10-06T14:33:40.657Z,36.27
2022-10-06T14:36:19.685Z,36.07
2022-10-06T14:38:51.209Z,36.73
2022-10-06T14:41:31.722Z,36.76
2022-10-06T14:44:08.435Z,37.17
2022-10-06T14:46:40.643Z,38.99
2022-10-06T14:49:09.701Z,38.58
2022-10-06T14:51:37.355Z,38.58
2022-10-06T14:54:06.044Z,38.67
2022-10-06T14:56:34.945Z,38.73
2022-10-06T14:59:07.145Z,39.11
2022-10-06T15:01:36.666Z,39.85
2022-10-06T15:04:07.226Z,39.63
2022-10-06T15:06:52.424Z,39.46
2022-10-06T15:09:19.040Z,40.23
2022-10-06T15:11:45.779Z,40.48
2022-10-06T15:14:12.449Z,40.94
2022-10-06T15:16:42.416Z,40.31
2022-10-06T15:19:10.964Z,41.25
2022-10-06T15:21:39.906Z,41.33
2022-10-06T15:24:08.146Z,42.53
2022-10-06T15:26:53.274Z,41.72
2022-10-06T15:29:20.071Z,41.13
2022-10-06T15:31:55.356Z,41.28
2022-10-06T15:34:27.368Z,40.81
2022-10-06T15:36:55.495Z,43.19
2022-10-06T15:39:24.443Z,43.91
2022-10-06T15:41:51.362Z,45.30
2022-10-06T15:44:21.985Z,43.04
2022-10-06T15:46:50.791Z,43.60
2022-10-06T15:49:22.776Z,43.39
2022-10-06T15:52:11.548Z,46.79
2022-10-06T15:54:40.989Z,45.49
2022-10-06T15:57:10.524Z,46.32
2022-10-06T15:59:40.020Z,47.63
2022-10-06T16:02:15.704Z,48.24
2022-10-06T16:04:43.131Z,52.38
2022-10-06T16:07:12.194Z,49.97
2022-10-06T16:09:51.063Z,51.01
2022-10-06T16:12:21.370Z,52.28
2022-10-06T16:14:48.288Z,53.27
2022-10-06T16:17:15.473Z,53.25
2022-10-06T16:19:42.822Z,52.50
2022-10-06T16:22:14.592Z,50.59
2022-10-06T16:24:41.872Z,50.28
2022-10-06T16:27:13.200Z,49.07
2022-10-06T16:29:40.538Z,48.41
2022-10-06T16:32:07.161Z,47.78
2022-10-06T16:34:33.840Z,47.44
2022-10-06T16:37:03.728Z,48.59
2022-10-06T16:39:30.465Z,48.59
2022-10-06T16:41:57.111Z,48.44
2022-10-06T16:44:23.813Z,49.36
2022-10-06T16:46:53.730Z,48.36
2022-10-06T16:49:27.063Z,48.13
2022-10-06T16:51:53.717Z,47.76
2022-10-06T16:54:21.163Z,47.37
2022-10-06T16:56:53.904Z,47.61
2022-10-06T16:59:22.994Z,47.83
2022-10-06T17:01:50.596Z,47.61
2022-10-06T17:04:30.793Z,47.47
2022-10-06T17:06:57.735Z,47.23
2022-10-06T17:09:27.845Z,47.29
2022-10-06T17:12:02.104Z,47.10
2022-10-06T17:14:30.654Z,47.40
2022-10-06T17:16:58.141Z,47.61
2022-10-06T17:19:31.967Z,47.22
2022-10-06T17:22:02.896Z,47.02
2022-10-06T17:24:31.283Z,47.63
2022-10-06T17:26:58.559Z,47.92
2022-10-06T17:29:27.091Z,48.58
2022-10-06T17:32:00.300Z,47.96
2022-10-06T17:34:32.744Z,47.43
2022-10-06T17:37:02.254Z,47.01
2022-10-06T17:39:29.884Z,48.13
2022-10-06T17:41:56.796Z,47.69
2022-10-06T17:44:27.043Z,47.94
2022-10-06T17:46:56.819Z,48.23
2022-10-06T17:49:24.437Z,48.52
2022-10-06T17:51:52.889Z,48.80
2022-10-06T17:54:21.994Z,49.44
2022-10-06T17:56:50.619Z,49.21
2022-10-06T17:59:28.583Z,49.26
2022-10-06T18:01:57.017Z,49.03
2022-10-06T18:04:24.328Z,48.97
2022-10-06T18:06:54.034Z,48.41
2022-10-06T18:09:21.604Z,48.37
2022-10-06T18:11:48.598Z,48.56
2022-10-06T18:14:17.644Z,48.74
2022-10-06T18:16:59.171Z,48.99
2022-10-06T18:19:31.138Z,48.65
2022-10-06T18:22:01.384Z,48.23
2022-10-06T18:24:30.026Z,48.29
2022-10-06T18:26:59.881Z,48.94
2022-10-06T18:29:30.721Z,49.12
2022-10-06T18:32:14.510Z,49.00
2022-10-06T18:37:30.581Z,49.13
2022-10-06T18:39:57.219Z,49.05
2022-10-06T18:42:24.158Z,49.07
2022-10-06T18:45:09.397Z,49.44
2022-10-06T18:47:54.277Z,49.32
2022-10-06T18:50:20.977Z,49.60
2022-10-06T18:52:47.586Z,49.40
2022-10-06T18:55:14.140Z,49.55
2022-10-06T18:57:41.327Z,49.37
2022-10-06T19:00:10.461Z,49.17
2022-10-06T19:02:37.054Z,49.21
2022-10-06T19:05:04.910Z,49.22
2022-10-06T19:07:31.664Z,48.99
2022-10-06T19:09:58.685Z,48.83
2022-10-06T19:12:25.343Z,48.71
2022-10-06T19:14:52.046Z,48.84
2022-10-06T19:17:18.680Z,49.11
2022-10-06T19:19:57.080Z,49.35
2022-10-06T19:22:26.731Z,50.02
2022-10-06T19:24:53.307Z,50.12
2022-10-06T19:27:24.968Z,49.51
2022-10-06T19:29:54.774Z,49.53
2022-10-06T19:32:24.638Z,50.11
2022-10-06T19:34:52.278Z,49.74
2022-10-06T19:37:19.634Z,49.83
2022-10-06T19:39:48.153Z,50.08
2022-10-06T19:42:35.543Z,49.99
2022-10-06T19:45:02.445Z,50.29
2022-10-06T19:47:29.824Z,50.15
2022-10-06T19:50:02.154Z,50.57
2022-10-06T19:52:31.334Z,50.58
2022-10-06T19:54:58.193Z,50.72
2022-10-06T19:57:25.135Z,50.78
2022-10-06T19:59:51.789Z,50.73
2022-10-06T20:02:18.522Z,50.80
2022-10-06T20:04:45.484Z,50.72
2022-10-06T20:07:12.733Z,51.09
2022-10-06T20:09:39.430Z,50.83
2022-10-06T20:12:06.054Z,50.71
2022-10-06T20:14:32.699Z,50.70
2022-10-06T20:16:59.349Z,50.85
2022-10-06T20:19:26.043Z,50.98
2022-10-06T20:21:53.187Z,50.48
2022-10-06T20:24:22.972Z,50.66
2022-10-06T20:26:50.866Z,50.70
2022-10-06T20:29:23.658Z,51.29
2022-10-06T20:31:56.071Z,51.12
2022-10-06T20:34:26.340Z,51.31
2022-10-06T20:36:56.242Z,51.63
2022-10-06T20:39:42.053Z,51.87
2022-10-06T20:42:14.722Z,51.66
2022-10-06T20:44:42.679Z,51.78
2022-10-06T20:47:11.885Z,51.94
2022-10-06T20:49:39.545Z,52.13
2022-10-06T20:52:09.779Z,52.32
2022-10-06T20:54:37.272Z,52.40
2022-10-06T20:57:06.192Z,52.55
2022-10-06T20:59:36.514Z,52.29
2022-10-06T21:02:05.101Z,52.51
2022-10-06T21:04:34.992Z,52.71
2022-10-06T21:07:05.711Z,52.65
2022-10-06T21:09:32.435Z,52.11
2022-10-06T21:12:05.142Z,52.13
2022-10-06T21:14:31.806Z,51.96
2022-10-06T21:17:01.393Z,52.02
2022-10-06T21:19:29.894Z,51.98
2022-10-06T21:21:59.801Z,52.02
2022-10-06T21:24:26.538Z,52.09
2022-10-06T21:26:53.121Z,52.39
2022-10-06T21:29:20.546Z,52.28
2022-10-06T21:31:47.431Z,52.60
2022-10-06T21:34:14.479Z,52.97
2022-10-06T21:36:47.466Z,53.01
2022-10-06T21:39:14.001Z,53.25
2022-10-06T21:41:41.320Z,53.65
2022-10-06T21:44:10.254Z,53.82
2022-10-06T21:46:57.499Z,53.99
2022-10-06T21:49:25.408Z,53.75
2022-10-06T21:51:54.101Z,54.02
2022-10-06T21:54:21.598Z,54.15
2022-10-06T21:56:48.725Z,54.34
2022-10-06T21:59:15.827Z,54.43
2022-10-06T22:01:44.802Z,54.37
2022-10-06T22:04:14.110Z,54.12
2022-10-06T22:06:41.391Z,54.55
2022-10-06T22:09:09.945Z,54.83
2022-10-06T22:11:39.039Z,54.63
2022-10-06T22:14:10.026Z,54.83
2022-10-06T22:16:37.760Z,54.81
2022-10-06T22:19:07.001Z,54.67
2022-10-06T22:21:36.504Z,54.85
2022-10-06T22:24:09.143Z,55.11
2022-10-06T22:26:38.005Z,55.00
2022-10-06T22:29:07.181Z,54.98
2022-10-06T22:31:34.281Z,55.25
2022-10-06T22:34:04.816Z,55.34
2022-10-06T22:36:33.223Z,55.43
2022-10-06T22:39:00.286Z,55.80
2022-10-06T22:41:27.064Z,55.67
2022-10-06T22:43:57.573Z,56.71
2022-10-06T22:46:25.580Z,56.02
2022-10-06T22:48:52.566Z,55.93
2022-10-06T22:51:19.269Z,56.02
2022-10-06T22:53:46.142Z,56.05
2022-10-06T22:56:13.048Z,56.01
2022-10-06T22:58:39.685Z,56.47
2022-10-06T23:01:14.451Z,56.43
2022-10-06T23:03:41.383Z,56.16
2022-10-06T23:06:10.316Z,56.19
2022-10-06T23:08:37.919Z,56.47
2022-10-06T23:11:10.151Z,56.66
2022-10-06T23:13:37.054Z,56.58
2022-10-06T23:16:07.821Z,56.63
2022-10-06T23:18:36.943Z,56.63
2022-10-06T23:21:19.293Z,56.99
2022-10-06T23:23:46.338Z,57.29
2022-10-06T23:26:14.587Z,57.18
2022-10-06T23:28:41.630Z,57.02
2022-10-06T23:31:10.120Z,56.83
2022-10-06T23:33:37.088Z,56.92
2022-10-06T23:36:08.936Z,57.01
2022-10-06T23:38:36.982Z,57.10
2022-10-06T23:41:04.531Z,57.46
2022-10-06T23:43:31.781Z,57.41
2022-10-06T23:45:58.557Z,57.07
2022-10-06T23:48:25.708Z,56.85
2022-10-06T23:51:04.565Z,56.95
2022-10-06T23:53:32.032Z,57.12
2022-10-06T23:55:59.010Z,57.27
2022-10-06T23:58:26.055Z,57.13
